createdAt,value
2022-08-26T00:01:56.701Z,100298.02
2022-08-26T00:06:59.695Z,100295.73
2022-08-26T00:12:02.706Z,100293.75
2022-08-26T00:17:05.720Z,100291.70
2022-08-26T00:22:11.620Z,100294.86
2022-08-26T00:27:14.523Z,100297.23
2022-08-26T00:32:17.248Z,100288.17
2022-08-26T00:37:20.516Z,100283.23
2022-08-26T00:42:23.308Z,100279.58
2022-08-26T00:47:34.430Z,100276.95
2022-08-26T00:52:37.941Z,100275.27
2022-08-26T00:57:42.281Z,100274.02
2022-08-26T01:02:48.179Z,100275.36
2022-08-26T01:07:52.379Z,100277.25
2022-08-26T01:13:00.661Z,100278.33
2022-08-26T01:18:06.187Z,100274.38
2022-08-26T01:23:11.745Z,100272.99
2022-08-26T01:28:21.785Z,100276.42
2022-08-26T01:33:40.027Z,100276.98
2022-08-26T01:38:45.519Z,100279.42
2022-08-26T01:43:52.875Z,100284.38
2022-08-26T01:48:58.694Z,100280.85
2022-08-26T01:54:02.040Z,100283.89
2022-08-26T01:59:09.360Z,100279.63
2022-08-26T02:04:24.462Z,100280.27
2022-08-26T02:09:27.378Z,100283.69
2022-08-26T02:14:34.793Z,100281.17
2022-08-26T02:19:41.985Z,100280.23
2022-08-26T02:25:16.270Z,100276.90
2022-08-26T02:30:26.141Z,100277.45
2022-08-26T02:35:33.760Z,100273.79
2022-08-26T02:40:41.091Z,100275.45
2022-08-26T02:45:44.943Z,100275.54
2022-08-26T02:50:48.833Z,100276.20
2022-08-26T02:55:51.836Z,100274.35
2022-08-26T03:00:54.761Z,100277.39
2022-08-26T03:05:58.162Z,100276.34
2022-08-26T03:11:01.650Z,100271.86
2022-08-26T03:16:06.045Z,100269.92
2022-08-26T03:21:12.077Z,100270.31
2022-08-26T03:26:16.207Z,100268.17
2022-08-26T03:31:19.022Z,100267.80
2022-08-26T03:36:27.749Z,100260.45
2022-08-26T03:41:33.007Z,100260.23
2022-08-26T03:46:35.882Z,100256.31
2022-08-26T03:51:39.113Z,100252.38
2022-08-26T03:56:42.002Z,100255.49
2022-08-26T04:01:45.429Z,100261.52
2022-08-26T04:06:48.488Z,100261.79
2022-08-26T04:11:52.898Z,100262.44
2022-08-26T04:16:56.341Z,100265.45
2022-08-26T04:22:00.180Z,100268.92
2022-08-26T04:27:03.792Z,100271.33
2022-08-26T04:32:08.874Z,100273.89
2022-08-26T04:37:13.309Z,100274.14
2022-08-26T04:42:19.950Z,100277.04
2022-08-26T04:47:32.206Z,100277.50
2022-08-26T04:52:36.904Z,100277.77
2022-08-26T04:57:40.664Z,100279.60
2022-08-26T05:02:43.839Z,100286.81
2022-08-26T05:07:46.618Z,100288.85
2022-08-26T05:12:49.805Z,100294.83
2022-08-26T05:17:53.089Z,100291.94
2022-08-26T05:22:55.818Z,100293.14
2022-08-26T05:27:58.522Z,100301.09
2022-08-26T05:33:01.983Z,100303.17
2022-08-26T05:38:12.470Z,100308.60
2022-08-26T05:43:17.080Z,100314.70
2022-08-26T05:48:24.417Z,100316.92
2022-08-26T05:53:27.924Z,100321.39
2022-08-26T05:58:31.056Z,100320.14
2022-08-26T06:03:37.487Z,100318.55
2022-08-26T06:08:40.991Z,100320.35
2022-08-26T06:13:44.827Z,100315.57
2022-08-26T06:18:48.451Z,100323.36
2022-08-26T06:24:12.447Z,100324.71
2022-08-26T06:29:24.340Z,100317.39
2022-08-26T06:34:29.858Z,100318.84
2022-08-26T06:39:34.176Z,100318.30
2022-08-26T06:44:37.187Z,100326.02
2022-08-26T06:49:44.293Z,100325.71
2022-08-26T06:54:47.616Z,100321.47
2022-08-26T06:59:51.185Z,100328.17
2022-08-26T07:04:54.096Z,100327.55
2022-08-26T07:09:59.971Z,100330.74
2022-08-26T07:15:03.024Z,100325.88
2022-08-26T07:20:08.532Z,100327.23
2022-08-26T07:25:11.536Z,100334.52
2022-08-26T07:30:15.007Z,100332.59
2022-08-26T07:35:18.204Z,100325.64
2022-08-26T07:40:22.397Z,100328.02
2022-08-26T07:45:25.862Z,100324.70
2022-08-26T07:50:49.504Z,100322.40
2022-08-26T07:55:52.027Z,100318.16
2022-08-26T08:00:55.351Z,100326.80
2022-08-26T08:05:58.079Z,100326.30
2022-08-26T08:11:01.551Z,100322.45
2022-08-26T08:16:05.885Z,100316.52
2022-08-26T08:21:22.084Z,100320.06
2022-08-26T08:26:27.718Z,100312.10
2022-08-26T08:31:55.864Z,100306.53
2022-08-26T08:36:58.082Z,100304.62
2022-08-26T08:42:19.139Z,100298.70
2022-08-26T08:47:34.296Z,100301.08
2022-08-26T08:52:39.245Z,100291.98
2022-08-26T08:58:03.789Z,100294.16
2022-08-26T09:03:19.741Z,100289.30
2022-08-26T09:08:28.505Z,100287.37
2022-08-26T09:13:31.749Z,100282.50
2022-08-26T09:18:57.372Z,100281.85
2022-08-26T09:24:00.913Z,100277.57
2022-08-26T09:29:16.083Z,100279.08
2022-08-26T09:34:19.089Z,100270.83
2022-08-26T09:39:27.859Z,100270.48
2022-08-26T09:44:32.054Z,100268.55
2022-08-26T09:49:41.160Z,100261.34
2022-08-26T09:54:46.111Z,100255.48
2022-08-26T09:59:49.691Z,100250.54
2022-08-26T10:04:55.789Z,100248.30
2022-08-26T10:09:59.477Z,100249.69
2022-08-26T10:15:10.650Z,100249.86
2022-08-26T10:20:24.068Z,100243.59
2022-08-26T10:25:33.502Z,100245.90
2022-08-26T10:31:00.860Z,100241.06
2022-08-26T10:36:30.272Z,100236.17
2022-08-26T10:41:40.912Z,100233.81
2022-08-26T10:46:58.983Z,100225.88
2022-08-26T10:52:19.859Z,100223.67
2022-08-26T10:57:34.117Z,100215.10
2022-08-26T11:02:47.085Z,100209.42
2022-08-26T11:08:13.781Z,100206.95
2022-08-26T11:13:16.547Z,100196.91
2022-08-26T11:18:41.230Z,100186.68
2022-08-26T11:23:50.252Z,100185.37
2022-08-26T11:28:53.679Z,100180.77
2022-08-26T11:34:39.438Z,100174.95
2022-08-26T11:39:54.967Z,100178.27
2022-08-26T11:45:03.543Z,100177.24
2022-08-26T11:50:12.890Z,100175.45
2022-08-26T11:55:17.290Z,100176.27
2022-08-26T12:00:33.291Z,100172.00
2022-08-26T12:05:44.582Z,100163.54
2022-08-26T12:10:50.848Z,100159.35
2022-08-26T12:15:57.310Z,100156.35
2022-08-26T12:21:24.406Z,100144.14
2022-08-26T12:26:35.338Z,100136.59
2022-08-26T12:31:44.130Z,100119.77
2022-08-26T12:36:55.950Z,100116.00
2022-08-26T12:42:03.296Z,100106.50
2022-08-26T12:47:40.080Z,100101.86
2022-08-26T12:53:12.490Z,100093.08
2022-08-26T12:58:15.646Z,100083.75
2022-08-26T13:03:46.153Z,100076.70
2022-08-26T13:09:10.360Z,100071.74
2022-08-26T13:14:23.834Z,100068.70
2022-08-26T13:19:27.346Z,100058.39
2022-08-26T13:24:34.533Z,100054.85
2022-08-26T13:29:37.542Z,100051.42
2022-08-26T13:34:40.630Z,100048.56
2022-08-26T13:39:43.560Z,100044.89
2022-08-26T13:44:50.860Z,100038.98
2022-08-26T13:49:53.870Z,100039.52
2022-08-26T13:54:56.881Z,100029.67
2022-08-26T13:59:59.887Z,100026.91
2022-08-26T14:05:03.094Z,100021.36
2022-08-26T14:10:07.234Z,100014.80
2022-08-26T14:15:10.832Z,100002.73
2022-08-26T14:20:19.083Z,100003.02
2022-08-26T14:25:22.907Z,99995.84
2022-08-26T14:30:26.014Z,99991.60
2022-08-26T14:35:31.070Z,99988.98
2022-08-26T14:40:37.534Z,99985.41
2022-08-26T14:45:44.360Z,99980.34
2022-08-26T14:50:47.365Z,99972.68
2022-08-26T14:55:50.688Z,99970.63
2022-08-26T15:00:53.581Z,99969.91
2022-08-26T15:05:56.955Z,99968.46
2022-08-26T15:10:59.902Z,99966.52
2022-08-26T15:16:03.161Z,99962.73
2022-08-26T15:21:07.505Z,99957.96
2022-08-26T15:26:12.174Z,99953.14
2022-08-26T15:31:15.663Z,99952.90
2022-08-26T15:36:18.835Z,99948.08
2022-08-26T15:41:22.407Z,99948.41
2022-08-26T15:46:25.525Z,99941.11
2022-08-26T15:51:36.011Z,99934.98
2022-08-26T15:56:51.901Z,99936.08
2022-08-26T16:01:56.229Z,99928.60
2022-08-26T16:06:59.602Z,99926.99
2022-08-26T16:12:02.866Z,99921.02
2022-08-26T16:17:06.024Z,99917.44
2022-08-26T16:22:09.395Z,99909.61
2022-08-26T16:27:13.370Z,99914.45
2022-08-26T16:32:16.376Z,99910.03
2022-08-26T16:37:19.382Z,99905.34
2022-08-26T16:42:22.880Z,99901.63
2022-08-26T16:47:26.590Z,99898.64
2022-08-26T16:52:30.351Z,99894.68
2022-08-26T16:57:37.558Z,99902.30
2022-08-26T17:02:41.961Z,99901.86
2022-08-26T17:07:45.002Z,99905.42
2022-08-26T17:12:48.315Z,99909.51
2022-08-26T17:17:52.656Z,99908.93
2022-08-26T17:22:56.624Z,99910.99
2022-08-26T17:27:59.779Z,99909.77
2022-08-26T17:33:11.046Z,99912.60
2022-08-26T17:38:14.199Z,99917.70
2022-08-26T17:43:17.965Z,99924.59
2022-08-26T17:48:20.658Z,99925.60
2022-08-26T17:53:24.711Z,99932.89
2022-08-26T17:58:27.456Z,99937.48
2022-08-26T18:03:32.321Z,99940.02
2022-08-26T18:08:35.212Z,99941.29
2022-08-26T18:13:38.595Z,99944.55
2022-08-26T18:18:53.581Z,99946.96
2022-08-26T18:23:57.019Z,99951.17
2022-08-26T18:29:00.523Z,99953.49
2022-08-26T18:34:03.950Z,99951.51
2022-08-26T18:39:08.425Z,99961.16
2022-08-26T18:44:13.980Z,99968.21
2022-08-26T18:49:19.086Z,99975.02
2022-08-26T18:54:22.554Z,99979.16
2022-08-26T18:59:29.493Z,99982.95
2022-08-26T19:04:34.115Z,99985.27
2022-08-26T19:09:37.179Z,99988.44
2022-08-26T19:14:41.325Z,99984.98
2022-08-26T19:19:44.068Z,99981.70
2022-08-26T19:24:48.347Z,99989.69
2022-08-26T19:29:51.377Z,99993.38
2022-08-26T19:34:54.456Z,99994.52
2022-08-26T19:39:57.303Z,99996.05
2022-08-26T19:45:24.346Z,100001.21
2022-08-26T19:50:30.711Z,100007.63
2022-08-26T19:55:33.846Z,100011.46
2022-08-26T20:00:39.853Z,100016.98
2022-08-26T20:05:42.566Z,100017.89
2022-08-26T20:10:46.807Z,100013.34
2022-08-26T20:15:49.576Z,100015.13
2022-08-26T20:21:12.250Z,100014.21
2022-08-26T20:26:15.153Z,100010.18
2022-08-26T20:31:19.584Z,100015.89
2022-08-26T20:36:26.993Z,100023.02
2022-08-26T20:41:30.019Z,100021.91
2022-08-26T20:46:34.850Z,100018.71
2022-08-26T20:51:37.970Z,100013.27
2022-08-26T20:56:40.979Z,100013.07
2022-08-26T21:01:44.515Z,100011.08
2022-08-26T21:06:52.438Z,100009.50
2022-08-26T21:11:56.347Z,100008.15
2022-08-26T21:16:59.867Z,100006.60
2022-08-26T21:22:02.773Z,100002.83
2022-08-26T21:27:05.676Z,100003.05
2022-08-26T21:32:08.724Z,99996.63
2022-08-26T21:37:16.666Z,99991.06
2022-08-26T21:42:21.023Z,99993.59
2022-08-26T21:47:24.718Z,100002.55
2022-08-26T21:52:27.834Z,100005.21
2022-08-26T21:57:32.629Z,100004.15
2022-08-26T22:02:37.192Z,100000.80
2022-08-26T22:07:40.283Z,99999.24
2022-08-26T22:12:43.488Z,99997.71
2022-08-26T22:17:46.805Z,99999.20
2022-08-26T22:22:49.707Z,100000.86
2022-08-26T22:27:52.817Z,99999.83
2022-08-26T22:32:55.823Z,100001.70
2022-08-26T22:37:59.860Z,100004.88
2022-08-26T22:43:04.810Z,100004.68
2022-08-26T22:48:08.173Z,100006.87
2022-08-26T22:53:11.949Z,100009.04
2022-08-26T22:58:17.516Z,100003.48
2022-08-26T23:03:20.855Z,100002.77
2022-08-26T23:08:27.623Z,99994.51
2022-08-26T23:13:30.635Z,99988.02
2022-08-26T23:18:33.645Z,99984.05
2022-08-26T23:23:38.107Z,99982.06
2022-08-26T23:28:41.095Z,99984.40
2022-08-26T23:34:02.742Z,99979.48
2022-08-26T23:39:06.356Z,99974.69
2022-08-26T23:44:09.257Z,99973.02
2022-08-26T23:49:12.266Z,99972.20
2022-08-26T23:54:16.192Z,99963.13
2022-08-26T23:59:19.301Z,99963.65
